sensor_id;sensor_type;location;lat;lon;timestamp;P1;durP1;ratioP1;P2;durP2;ratioP2
24761;SDS011;12865;51.934;10.330;2022-07-29T00:01:17;4.57;;;1.70;;
24761;SDS011;12865;51.934;10.330;2022-07-29T00:04:02;6.15;;;2.10;;
24761;SDS011;12865;51.934;10.330;2022-07-29T00:06:48;7.47;;;1.95;;
24761;SDS011;12865;51.934;10.330;2022-07-29T00:09:34;7.28;;;2.20;;
24761;SDS011;12865;51.934;10.330;2022-07-29T00:12:20;5.40;;;1.88;;
24761;SDS011;12865;51.934;10.330;2022-07-29T00:15:08;5.28;;;1.80;;
24761;SDS011;12865;51.934;10.330;2022-07-29T00:17:53;5.20;;;1.77;;
24761;SDS011;12865;51.934;10.330;2022-07-29T00:20:39;5.95;;;1.70;;
24761;SDS011;12865;51.934;10.330;2022-07-29T00:23:25;2.70;;;1.98;;
24761;SDS011;12865;51.934;10.330;2022-07-29T00:26:11;2.03;;;1.40;;
24761;SDS011;12865;51.934;10.330;2022-07-29T00:28:57;7.15;;;1.77;;
24761;SDS011;12865;51.934;10.330;2022-07-29T00:31:44;5.57;;;1.98;;
24761;SDS011;12865;51.934;10.330;2022-07-29T00:34:30;3.38;;;1.88;;
24761;SDS011;12865;51.934;10.330;2022-07-29T00:37:34;2.88;;;1.83;;
24761;SDS011;12865;51.934;10.330;2022-07-29T00:40:20;2.55;;;1.90;;
24761;SDS011;12865;51.934;10.330;2022-07-29T00:43:05;3.08;;;1.50;;
24761;SDS011;12865;51.934;10.330;2022-07-29T00:45:51;4.32;;;2.03;;
24761;SDS011;12865;51.934;10.330;2022-07-29T00:48:37;3.33;;;1.63;;
24761;SDS011;12865;51.934;10.330;2022-07-29T00:51:25;5.60;;;2.05;;
24761;SDS011;12865;51.934;10.330;2022-07-29T00:54:11;4.68;;;1.88;;
24761;SDS011;12865;51.934;10.330;2022-07-29T00:56:58;5.65;;;2.00;;
24761;SDS011;12865;51.934;10.330;2022-07-29T00:59:44;3.72;;;1.58;;
24761;SDS011;12865;51.934;10.330;2022-07-29T01:02:29;2.53;;;1.60;;
24761;SDS011;12865;51.934;10.330;2022-07-29T01:05:16;2.78;;;1.52;;
24761;SDS011;12865;51.934;10.330;2022-07-29T01:08:04;4.70;;;1.60;;
24761;SDS011;12865;51.934;10.330;2022-07-29T01:10:50;4.32;;;1.65;;
24761;SDS011;12865;51.934;10.330;2022-07-29T01:13:36;4.38;;;1.83;;
24761;SDS011;12865;51.934;10.330;2022-07-29T01:16:25;6.80;;;1.77;;
24761;SDS011;12865;51.934;10.330;2022-07-29T01:29:18;3.45;;;1.70;;
24761;SDS011;12865;51.934;10.330;2022-07-29T01:32:24;3.42;;;1.50;;
24761;SDS011;12865;51.934;10.330;2022-07-29T01:35:46;2.72;;;1.73;;
24761;SDS011;12865;51.934;10.330;2022-07-29T01:38:26;2.58;;;1.52;;
24761;SDS011;12865;51.934;10.330;2022-07-29T01:41:15;4.97;;;1.77;;
24761;SDS011;12865;51.934;10.330;2022-07-29T01:44:08;2.63;;;1.30;;
24761;SDS011;12865;51.934;10.330;2022-07-29T01:46:58;3.72;;;1.98;;
24761;SDS011;12865;51.934;10.330;2022-07-29T01:49:51;4.00;;;1.60;;
24761;SDS011;12865;51.934;10.330;2022-07-29T01:52:44;5.10;;;1.55;;
24761;SDS011;12865;51.934;10.330;2022-07-29T01:55:41;3.80;;;1.48;;
24761;SDS011;12865;51.934;10.330;2022-07-29T01:58:29;1.67;;;1.42;;
24761;SDS011;12865;51.934;10.330;2022-07-29T02:01:18;7.38;;;1.85;;
24761;SDS011;12865;51.934;10.330;2022-07-29T02:04:06;6.38;;;1.50;;
24761;SDS011;12865;51.934;10.330;2022-07-29T02:06:57;3.17;;;1.73;;
24761;SDS011;12865;51.934;10.330;2022-07-29T02:09:47;1.83;;;1.30;;
24761;SDS011;12865;51.934;10.330;2022-07-29T02:12:34;4.32;;;1.73;;
24761;SDS011;12865;51.934;10.330;2022-07-29T02:15:21;3.92;;;1.48;;
24761;SDS011;12865;51.934;10.330;2022-07-29T02:18:11;3.73;;;1.70;;
24761;SDS011;12865;51.934;10.330;2022-07-29T02:21:00;4.50;;;1.98;;
24761;SDS011;12865;51.934;10.330;2022-07-29T02:23:47;4.00;;;1.35;;
24761;SDS011;12865;51.934;10.330;2022-07-29T02:26:35;4.78;;;1.90;;
24761;SDS011;12865;51.934;10.330;2022-07-29T02:29:22;4.25;;;1.88;;
24761;SDS011;12865;51.934;10.330;2022-07-29T02:32:10;4.75;;;1.45;;
24761;SDS011;12865;51.934;10.330;2022-07-29T02:34:58;7.27;;;2.17;;
24761;SDS011;12865;51.934;10.330;2022-07-29T02:37:45;2.35;;;1.10;;
24761;SDS011;12865;51.934;10.330;2022-07-29T02:40:55;3.10;;;1.38;;
24761;SDS011;12865;51.934;10.330;2022-07-29T02:43:43;4.13;;;1.88;;
24761;SDS011;12865;51.934;10.330;2022-07-29T02:46:32;3.70;;;1.40;;
24761;SDS011;12865;51.934;10.330;2022-07-29T02:58:10;2.25;;;1.55;;
24761;SDS011;12865;51.934;10.330;2022-07-29T03:01:07;3.65;;;1.75;;
24761;SDS011;12865;51.934;10.330;2022-07-29T03:03:57;4.47;;;1.60;;
24761;SDS011;12865;51.934;10.330;2022-07-29T03:06:46;3.70;;;1.50;;
24761;SDS011;12865;51.934;10.330;2022-07-29T03:09:35;6.35;;;1.63;;
24761;SDS011;12865;51.934;10.330;2022-07-29T03:12:22;2.53;;;1.35;;
24761;SDS011;12865;51.934;10.330;2022-07-29T03:15:08;3.47;;;1.70;;
24761;SDS011;12865;51.934;10.330;2022-07-29T03:17:55;4.75;;;2.00;;
24761;SDS011;12865;51.934;10.330;2022-07-29T03:20:41;2.75;;;1.98;;
24761;SDS011;12865;51.934;10.330;2022-07-29T03:23:27;4.03;;;1.60;;
24761;SDS011;12865;51.934;10.330;2022-07-29T03:26:13;3.60;;;1.85;;
24761;SDS011;12865;51.934;10.330;2022-07-29T03:28:59;4.97;;;1.90;;
24761;SDS011;12865;51.934;10.330;2022-07-29T03:31:45;5.78;;;1.73;;
24761;SDS011;12865;51.934;10.330;2022-07-29T03:34:31;4.38;;;1.92;;
24761;SDS011;12865;51.934;10.330;2022-07-29T03:37:16;3.67;;;1.40;;
24761;SDS011;12865;51.934;10.330;2022-07-29T03:40:03;3.35;;;1.67;;
24761;SDS011;12865;51.934;10.330;2022-07-29T03:42:52;3.78;;;1.55;;
24761;SDS011;12865;51.934;10.330;2022-07-29T03:45:41;4.95;;;1.80;;
24761;SDS011;12865;51.934;10.330;2022-07-29T03:48:29;4.60;;;1.90;;
24761;SDS011;12865;51.934;10.330;2022-07-29T03:51:18;4.85;;;1.90;;
24761;SDS011;12865;51.934;10.330;2022-07-29T03:54:04;3.92;;;1.73;;
24761;SDS011;12865;51.934;10.330;2022-07-29T03:56:50;4.70;;;1.50;;
24761;SDS011;12865;51.934;10.330;2022-07-29T03:59:38;2.10;;;1.40;;
24761;SDS011;12865;51.934;10.330;2022-07-29T04:02:25;2.83;;;1.90;;
24761;SDS011;12865;51.934;10.330;2022-07-29T04:05:11;6.30;;;1.90;;
24761;SDS011;12865;51.934;10.330;2022-07-29T04:07:58;5.60;;;2.10;;
24761;SDS011;12865;51.934;10.330;2022-07-29T04:10:44;5.13;;;1.70;;
24761;SDS011;12865;51.934;10.330;2022-07-29T04:13:29;3.38;;;1.77;;
24761;SDS011;12865;51.934;10.330;2022-07-29T04:16:15;4.07;;;1.63;;
24761;SDS011;12865;51.934;10.330;2022-07-29T04:19:01;4.05;;;1.58;;
24761;SDS011;12865;51.934;10.330;2022-07-29T04:21:47;2.38;;;1.60;;
24761;SDS011;12865;51.934;10.330;2022-07-29T04:24:33;4.10;;;1.70;;
24761;SDS011;12865;51.934;10.330;2022-07-29T04:27:19;4.45;;;1.83;;
24761;SDS011;12865;51.934;10.330;2022-07-29T04:30:05;3.95;;;1.52;;
24761;SDS011;12865;51.934;10.330;2022-07-29T04:32:51;5.53;;;1.60;;
24761;SDS011;12865;51.934;10.330;2022-07-29T04:35:37;2.80;;;1.67;;
24761;SDS011;12865;51.934;10.330;2022-07-29T04:38:23;3.25;;;1.73;;
24761;SDS011;12865;51.934;10.330;2022-07-29T04:41:09;7.05;;;1.88;;
24761;SDS011;12865;51.934;10.330;2022-07-29T04:43:55;4.50;;;1.60;;
24761;SDS011;12865;51.934;10.330;2022-07-29T04:46:40;5.03;;;1.80;;
24761;SDS011;12865;51.934;10.330;2022-07-29T04:49:26;3.33;;;1.83;;
24761;SDS011;12865;51.934;10.330;2022-07-29T04:52:12;5.13;;;1.60;;
24761;SDS011;12865;51.934;10.330;2022-07-29T04:54:57;3.13;;;1.42;;
24761;SDS011;12865;51.934;10.330;2022-07-29T04:57:43;4.15;;;1.70;;
24761;SDS011;12865;51.934;10.330;2022-07-29T05:00:29;3.30;;;1.63;;
24761;SDS011;12865;51.934;10.330;2022-07-29T05:03:14;4.93;;;1.80;;
24761;SDS011;12865;51.934;10.330;2022-07-29T05:06:00;7.28;;;1.63;;
24761;SDS011;12865;51.934;10.330;2022-07-29T05:08:46;4.88;;;2.13;;
24761;SDS011;12865;51.934;10.330;2022-07-29T05:11:31;5.05;;;1.80;;
24761;SDS011;12865;51.934;10.330;2022-07-29T05:14:17;3.60;;;1.55;;
24761;SDS011;12865;51.934;10.330;2022-07-29T05:17:03;4.15;;;1.90;;
24761;SDS011;12865;51.934;10.330;2022-07-29T05:19:48;4.13;;;1.70;;
24761;SDS011;12865;51.934;10.330;2022-07-29T05:22:36;3.83;;;1.88;;
24761;SDS011;12865;51.934;10.330;2022-07-29T05:25:22;3.30;;;1.90;;
24761;SDS011;12865;51.934;10.330;2022-07-29T05:28:07;7.63;;;1.80;;
24761;SDS011;12865;51.934;10.330;2022-07-29T05:30:53;3.95;;;1.70;;
24761;SDS011;12865;51.934;10.330;2022-07-29T05:33:39;2.85;;;1.77;;
24761;SDS011;12865;51.934;10.330;2022-07-29T05:36:24;2.58;;;1.40;;
24761;SDS011;12865;51.934;10.330;2022-07-29T05:39:10;7.32;;;2.03;;
24761;SDS011;12865;51.934;10.330;2022-07-29T05:41:56;5.70;;;1.63;;
24761;SDS011;12865;51.934;10.330;2022-07-29T05:44:42;3.42;;;1.85;;
24761;SDS011;12865;51.934;10.330;2022-07-29T05:47:27;4.70;;;1.83;;
24761;SDS011;12865;51.934;10.330;2022-07-29T05:50:13;5.60;;;2.03;;
24761;SDS011;12865;51.934;10.330;2022-07-29T05:52:59;4.60;;;1.70;;
24761;SDS011;12865;51.934;10.330;2022-07-29T05:55:44;5.72;;;1.85;;
24761;SDS011;12865;51.934;10.330;2022-07-29T05:58:30;3.85;;;1.88;;
24761;SDS011;12865;51.934;10.330;2022-07-29T06:01:16;4.05;;;1.88;;
24761;SDS011;12865;51.934;10.330;2022-07-29T06:04:01;6.35;;;1.83;;
24761;SDS011;12865;51.934;10.330;2022-07-29T06:06:47;4.18;;;1.95;;
24761;SDS011;12865;51.934;10.330;2022-07-29T06:09:33;7.82;;;1.98;;
24761;SDS011;12865;51.934;10.330;2022-07-29T06:12:20;3.08;;;1.92;;
24761;SDS011;12865;51.934;10.330;2022-07-29T06:15:05;3.40;;;1.88;;
24761;SDS011;12865;51.934;10.330;2022-07-29T06:17:51;4.68;;;1.55;;
24761;SDS011;12865;51.934;10.330;2022-07-29T06:20:37;5.57;;;1.95;;
24761;SDS011;12865;51.934;10.330;2022-07-29T06:23:23;3.95;;;1.85;;
24761;SDS011;12865;51.934;10.330;2022-07-29T06:26:09;3.30;;;1.67;;
24761;SDS011;12865;51.934;10.330;2022-07-29T06:28:54;5.00;;;1.60;;
24761;SDS011;12865;51.934;10.330;2022-07-29T06:31:40;5.45;;;1.80;;
24761;SDS011;12865;51.934;10.330;2022-07-29T06:34:26;3.42;;;1.73;;
24761;SDS011;12865;51.934;10.330;2022-07-29T06:37:11;6.93;;;2.20;;
24761;SDS011;12865;51.934;10.330;2022-07-29T06:39:57;5.88;;;1.73;;
24761;SDS011;12865;51.934;10.330;2022-07-29T06:43:01;3.58;;;1.73;;
24761;SDS011;12865;51.934;10.330;2022-07-29T06:45:47;5.32;;;2.03;;
24761;SDS011;12865;51.934;10.330;2022-07-29T06:48:33;6.20;;;2.15;;
24761;SDS011;12865;51.934;10.330;2022-07-29T06:51:19;3.92;;;2.00;;
24761;SDS011;12865;51.934;10.330;2022-07-29T06:54:06;10.35;;;2.13;;
24761;SDS011;12865;51.934;10.330;2022-07-29T06:56:51;3.35;;;1.70;;
24761;SDS011;12865;51.934;10.330;2022-07-29T06:59:37;4.07;;;1.73;;
24761;SDS011;12865;51.934;10.330;2022-07-29T07:02:23;3.92;;;1.52;;
24761;SDS011;12865;51.934;10.330;2022-07-29T07:05:09;2.92;;;1.63;;
24761;SDS011;12865;51.934;10.330;2022-07-29T07:07:55;5.65;;;2.03;;
24761;SDS011;12865;51.934;10.330;2022-07-29T07:10:40;3.25;;;1.70;;
24761;SDS011;12865;51.934;10.330;2022-07-29T07:13:26;3.90;;;1.85;;
24761;SDS011;12865;51.934;10.330;2022-07-29T07:16:13;3.42;;;1.88;;
24761;SDS011;12865;51.934;10.330;2022-07-29T07:18:59;5.70;;;2.08;;
24761;SDS011;12865;51.934;10.330;2022-07-29T07:21:45;5.35;;;2.05;;
24761;SDS011;12865;51.934;10.330;2022-07-29T07:24:30;4.32;;;1.80;;
24761;SDS011;12865;51.934;10.330;2022-07-29T07:27:16;3.97;;;1.88;;
24761;SDS011;12865;51.934;10.330;2022-07-29T07:30:03;5.15;;;2.00;;
24761;SDS011;12865;51.934;10.330;2022-07-29T07:32:54;6.22;;;1.75;;
24761;SDS011;12865;51.934;10.330;2022-07-29T07:35:40;2.60;;;1.77;;
24761;SDS011;12865;51.934;10.330;2022-07-29T07:38:27;3.45;;;1.95;;
24761;SDS011;12865;51.934;10.330;2022-07-29T07:41:12;5.13;;;1.75;;
24761;SDS011;12865;51.934;10.330;2022-07-29T07:43:58;4.57;;;1.58;;
24761;SDS011;12865;51.934;10.330;2022-07-29T07:46:44;4.47;;;1.70;;
24761;SDS011;12865;51.934;10.330;2022-07-29T07:49:30;8.10;;;2.22;;
24761;SDS011;12865;51.934;10.330;2022-07-29T07:52:16;4.60;;;1.77;;
24761;SDS011;12865;51.934;10.330;2022-07-29T07:55:03;5.25;;;2.05;;
24761;SDS011;12865;51.934;10.330;2022-07-29T07:57:49;6.07;;;3.15;;
24761;SDS011;12865;51.934;10.330;2022-07-29T08:00:35;3.83;;;1.98;;
24761;SDS011;12865;51.934;10.330;2022-07-29T08:03:21;4.68;;;2.00;;
24761;SDS011;12865;51.934;10.330;2022-07-29T08:06:06;6.45;;;1.92;;
24761;SDS011;12865;51.934;10.330;2022-07-29T08:08:52;4.18;;;1.88;;
24761;SDS011;12865;51.934;10.330;2022-07-29T08:11:38;8.05;;;2.30;;
24761;SDS011;12865;51.934;10.330;2022-07-29T08:14:24;3.33;;;1.83;;
24761;SDS011;12865;51.934;10.330;2022-07-29T08:17:10;6.82;;;1.98;;
24761;SDS011;12865;51.934;10.330;2022-07-29T08:19:56;4.88;;;1.88;;
24761;SDS011;12865;51.934;10.330;2022-07-29T08:22:41;4.25;;;1.95;;
24761;SDS011;12865;51.934;10.330;2022-07-29T08:25:27;4.38;;;1.65;;
24761;SDS011;12865;51.934;10.330;2022-07-29T08:28:13;4.90;;;1.83;;
24761;SDS011;12865;51.934;10.330;2022-07-29T08:30:59;4.80;;;1.60;;
24761;SDS011;12865;51.934;10.330;2022-07-29T08:33:45;5.35;;;2.20;;
24761;SDS011;12865;51.934;10.330;2022-07-29T08:36:31;6.43;;;2.00;;
24761;SDS011;12865;51.934;10.330;2022-07-29T08:39:18;5.35;;;1.90;;
24761;SDS011;12865;51.934;10.330;2022-07-29T08:42:04;5.25;;;1.83;;
24761;SDS011;12865;51.934;10.330;2022-07-29T08:44:51;5.00;;;1.90;;
24761;SDS011;12865;51.934;10.330;2022-07-29T08:47:38;5.05;;;1.90;;
24761;SDS011;12865;51.934;10.330;2022-07-29T08:50:25;6.27;;;2.40;;
24761;SDS011;12865;51.934;10.330;2022-07-29T08:53:11;6.05;;;2.10;;
24761;SDS011;12865;51.934;10.330;2022-07-29T08:55:58;4.40;;;1.63;;
24761;SDS011;12865;51.934;10.330;2022-07-29T08:58:45;5.47;;;2.15;;
24761;SDS011;12865;51.934;10.330;2022-07-29T09:01:32;8.77;;;2.92;;
24761;SDS011;12865;51.934;10.330;2022-07-29T09:04:19;5.45;;;1.88;;
24761;SDS011;12865;51.934;10.330;2022-07-29T09:07:06;4.82;;;1.98;;
24761;SDS011;12865;51.934;10.330;2022-07-29T09:09:53;4.95;;;2.03;;
24761;SDS011;12865;51.934;10.330;2022-07-29T09:12:39;10.88;;;2.35;;
24761;SDS011;12865;51.934;10.330;2022-07-29T09:15:25;6.93;;;1.90;;
24761;SDS011;12865;51.934;10.330;2022-07-29T09:18:10;12.05;;;2.05;;
24761;SDS011;12865;51.934;10.330;2022-07-29T09:20:56;6.68;;;2.42;;
24761;SDS011;12865;51.934;10.330;2022-07-29T09:24:05;7.25;;;2.20;;
24761;SDS011;12865;51.934;10.330;2022-07-29T09:26:58;5.28;;;2.25;;
24761;SDS011;12865;51.934;10.330;2022-07-29T09:29:43;8.77;;;1.92;;
24761;SDS011;12865;51.934;10.330;2022-07-29T09:32:29;7.18;;;2.03;;
24761;SDS011;12865;51.934;10.330;2022-07-29T09:38:12;3.83;;;1.65;;
24761;SDS011;12865;51.934;10.330;2022-07-29T09:40:59;5.05;;;1.98;;
24761;SDS011;12865;51.934;10.330;2022-07-29T09:43:56;4.63;;;1.70;;
24761;SDS011;12865;51.934;10.330;2022-07-29T09:46:56;4.22;;;1.95;;
24761;SDS011;12865;51.934;10.330;2022-07-29T09:49:57;4.40;;;2.10;;
24761;SDS011;12865;51.934;10.330;2022-07-29T09:52:45;4.95;;;2.05;;
24761;SDS011;12865;51.934;10.330;2022-07-29T09:55:32;6.32;;;2.20;;
24761;SDS011;12865;51.934;10.330;2022-07-29T09:58:30;5.03;;;2.35;;
24761;SDS011;12865;51.934;10.330;2022-07-29T10:01:27;5.72;;;2.05;;
24761;SDS011;12865;51.934;10.330;2022-07-29T10:04:13;3.35;;;1.85;;
24761;SDS011;12865;51.934;10.330;2022-07-29T10:07:01;6.90;;;2.38;;
24761;SDS011;12865;51.934;10.330;2022-07-29T10:09:54;3.67;;;1.92;;
24761;SDS011;12865;51.934;10.330;2022-07-29T10:12:48;5.45;;;2.28;;
24761;SDS011;12865;51.934;10.330;2022-07-29T10:15:40;5.75;;;2.03;;
24761;SDS011;12865;51.934;10.330;2022-07-29T10:18:28;8.30;;;2.00;;
24761;SDS011;12865;51.934;10.330;2022-07-29T10:21:15;8.35;;;2.47;;
24761;SDS011;12865;51.934;10.330;2022-07-29T10:24:01;7.82;;;2.70;;
24761;SDS011;12865;51.934;10.330;2022-07-29T10:26:47;4.43;;;2.10;;
24761;SDS011;12865;51.934;10.330;2022-07-29T10:29:33;8.60;;;2.00;;
24761;SDS011;12865;51.934;10.330;2022-07-29T10:32:24;5.15;;;2.30;;
24761;SDS011;12865;51.934;10.330;2022-07-29T10:35:21;4.22;;;2.33;;
24761;SDS011;12865;51.934;10.330;2022-07-29T10:44:31;5.95;;;2.65;;
24761;SDS011;12865;51.934;10.330;2022-07-29T10:47:25;5.47;;;2.35;;
24761;SDS011;12865;51.934;10.330;2022-07-29T10:50:11;4.75;;;2.08;;
24761;SDS011;12865;51.934;10.330;2022-07-29T10:52:57;8.35;;;2.20;;
24761;SDS011;12865;51.934;10.330;2022-07-29T10:55:44;2.55;;;1.95;;
24761;SDS011;12865;51.934;10.330;2022-07-29T10:58:32;8.73;;;2.33;;
24761;SDS011;12865;51.934;10.330;2022-07-29T11:01:30;4.25;;;2.40;;
24761;SDS011;12865;51.934;10.330;2022-07-29T11:04:25;7.80;;;2.35;;
24761;SDS011;12865;51.934;10.330;2022-07-29T11:07:31;5.25;;;2.42;;
24761;SDS011;12865;51.934;10.330;2022-07-29T11:10:19;5.72;;;2.40;;
24761;SDS011;12865;51.934;10.330;2022-07-29T11:13:06;6.47;;;2.58;;
24761;SDS011;12865;51.934;10.330;2022-07-29T11:15:55;5.63;;;2.70;;
24761;SDS011;12865;51.934;10.330;2022-07-29T11:21:57;5.38;;;2.45;;
24761;SDS011;12865;51.934;10.330;2022-07-29T11:24:43;5.30;;;2.42;;
24761;SDS011;12865;51.934;10.330;2022-07-29T11:27:32;7.38;;;2.33;;
24761;SDS011;12865;51.934;10.330;2022-07-29T11:30:46;6.63;;;2.50;;
24761;SDS011;12865;51.934;10.330;2022-07-29T11:33:34;7.45;;;2.30;;
24761;SDS011;12865;51.934;10.330;2022-07-29T11:36:20;8.88;;;2.58;;
24761;SDS011;12865;51.934;10.330;2022-07-29T11:39:24;7.63;;;2.20;;
24761;SDS011;12865;51.934;10.330;2022-07-29T11:45:16;7.13;;;2.67;;
24761;SDS011;12865;51.934;10.330;2022-07-29T11:48:06;5.95;;;2.50;;
24761;SDS011;12865;51.934;10.330;2022-07-29T11:50:52;7.30;;;2.90;;
24761;SDS011;12865;51.934;10.330;2022-07-29T11:53:38;3.08;;;2.45;;
24761;SDS011;12865;51.934;10.330;2022-07-29T11:56:24;3.42;;;2.30;;
24761;SDS011;12865;51.934;10.330;2022-07-29T11:59:14;5.30;;;2.65;;
24761;SDS011;12865;51.934;10.330;2022-07-29T12:02:00;7.47;;;3.03;;
24761;SDS011;12865;51.934;10.330;2022-07-29T12:04:54;6.25;;;2.70;;
24761;SDS011;12865;51.934;10.330;2022-07-29T12:07:41;6.18;;;2.70;;
24761;SDS011;12865;51.934;10.330;2022-07-29T12:10:29;8.48;;;3.10;;
24761;SDS011;12865;51.934;10.330;2022-07-29T12:13:17;5.78;;;2.90;;
24761;SDS011;12865;51.934;10.330;2022-07-29T12:16:06;4.57;;;3.28;;
24761;SDS011;12865;51.934;10.330;2022-07-29T12:18:58;5.13;;;3.13;;
24761;SDS011;12865;51.934;10.330;2022-07-29T12:21:48;6.85;;;3.20;;
24761;SDS011;12865;51.934;10.330;2022-07-29T12:24:44;6.95;;;3.00;;
24761;SDS011;12865;51.934;10.330;2022-07-29T12:27:30;7.78;;;3.22;;
24761;SDS011;12865;51.934;10.330;2022-07-29T12:30:16;8.63;;;3.38;;
24761;SDS011;12865;51.934;10.330;2022-07-29T12:33:02;8.27;;;3.63;;
24761;SDS011;12865;51.934;10.330;2022-07-29T12:36:00;5.75;;;3.80;;
24761;SDS011;12865;51.934;10.330;2022-07-29T12:38:46;9.25;;;3.70;;
24761;SDS011;12865;51.934;10.330;2022-07-29T12:41:32;7.72;;;3.63;;
24761;SDS011;12865;51.934;10.330;2022-07-29T12:44:18;7.68;;;3.88;;
24761;SDS011;12865;51.934;10.330;2022-07-29T12:47:04;9.43;;;4.20;;
24761;SDS011;12865;51.934;10.330;2022-07-29T12:49:50;9.30;;;3.78;;
24761;SDS011;12865;51.934;10.330;2022-07-29T12:52:36;10.00;;;4.80;;
24761;SDS011;12865;51.934;10.330;2022-07-29T13:01:23;8.65;;;3.58;;
24761;SDS011;12865;51.934;10.330;2022-07-29T13:04:09;8.65;;;3.60;;
24761;SDS011;12865;51.934;10.330;2022-07-29T13:07:02;6.30;;;3.67;;
24761;SDS011;12865;51.934;10.330;2022-07-29T13:09:51;8.23;;;3.83;;
24761;SDS011;12865;51.934;10.330;2022-07-29T13:12:37;7.28;;;3.53;;
24761;SDS011;12865;51.934;10.330;2022-07-29T13:15:23;5.20;;;3.45;;
24761;SDS011;12865;51.934;10.330;2022-07-29T13:21:15;5.72;;;3.60;;
24761;SDS011;12865;51.934;10.330;2022-07-29T13:24:01;5.70;;;3.67;;
24761;SDS011;12865;51.934;10.330;2022-07-29T13:26:47;7.10;;;3.78;;
24761;SDS011;12865;51.934;10.330;2022-07-29T13:29:32;6.70;;;3.42;;
24761;SDS011;12865;51.934;10.330;2022-07-29T13:32:19;8.55;;;3.00;;
24761;SDS011;12865;51.934;10.330;2022-07-29T13:35:07;7.63;;;3.70;;
24761;SDS011;12865;51.934;10.330;2022-07-29T13:37:53;11.15;;;3.38;;
24761;SDS011;12865;51.934;10.330;2022-07-29T13:40:39;6.60;;;3.78;;
24761;SDS011;12865;51.934;10.330;2022-07-29T13:43:25;5.03;;;3.95;;
24761;SDS011;12865;51.934;10.330;2022-07-29T13:46:11;9.52;;;3.95;;
24761;SDS011;12865;51.934;10.330;2022-07-29T13:48:57;7.47;;;3.70;;
24761;SDS011;12865;51.934;10.330;2022-07-29T13:51:42;7.53;;;3.85;;
24761;SDS011;12865;51.934;10.330;2022-07-29T13:54:28;7.13;;;4.00;;
24761;SDS011;12865;51.934;10.330;2022-07-29T13:57:14;11.18;;;4.30;;
24761;SDS011;12865;51.934;10.330;2022-07-29T14:00:00;7.50;;;4.20;;
24761;SDS011;12865;51.934;10.330;2022-07-29T14:02:46;5.43;;;3.92;;
24761;SDS011;12865;51.934;10.330;2022-07-29T14:05:32;9.18;;;4.35;;
24761;SDS011;12865;51.934;10.330;2022-07-29T14:08:17;5.82;;;3.70;;
24761;SDS011;12865;51.934;10.330;2022-07-29T14:11:03;9.77;;;3.97;;
24761;SDS011;12865;51.934;10.330;2022-07-29T14:13:49;7.80;;;4.47;;
24761;SDS011;12865;51.934;10.330;2022-07-29T14:16:34;8.38;;;4.13;;
24761;SDS011;12865;51.934;10.330;2022-07-29T14:19:20;6.30;;;3.85;;
24761;SDS011;12865;51.934;10.330;2022-07-29T14:22:06;7.00;;;3.92;;
24761;SDS011;12865;51.934;10.330;2022-07-29T14:24:53;8.18;;;4.78;;
24761;SDS011;12865;51.934;10.330;2022-07-29T14:27:39;7.70;;;3.72;;
24761;SDS011;12865;51.934;10.330;2022-07-29T14:30:25;8.57;;;3.90;;
24761;SDS011;12865;51.934;10.330;2022-07-29T14:33:10;10.30;;;3.72;;
24761;SDS011;12865;51.934;10.330;2022-07-29T14:35:56;14.18;;;4.15;;
24761;SDS011;12865;51.934;10.330;2022-07-29T14:38:42;7.75;;;3.85;;
24761;SDS011;12865;51.934;10.330;2022-07-29T14:41:27;7.80;;;4.15;;
24761;SDS011;12865;51.934;10.330;2022-07-29T14:44:13;7.30;;;3.78;;
24761;SDS011;12865;51.934;10.330;2022-07-29T14:46:59;6.43;;;3.80;;
24761;SDS011;12865;51.934;10.330;2022-07-29T14:49:45;7.68;;;3.70;;
24761;SDS011;12865;51.934;10.330;2022-07-29T14:52:31;9.85;;;4.25;;
24761;SDS011;12865;51.934;10.330;2022-07-29T14:55:17;9.18;;;3.88;;
24761;SDS011;12865;51.934;10.330;2022-07-29T14:58:03;7.47;;;3.50;;
24761;SDS011;12865;51.934;10.330;2022-07-29T15:00:48;6.00;;;3.92;;
24761;SDS011;12865;51.934;10.330;2022-07-29T15:03:34;8.98;;;4.13;;
24761;SDS011;12865;51.934;10.330;2022-07-29T15:06:20;7.28;;;4.00;;
24761;SDS011;12865;51.934;10.330;2022-07-29T15:09:06;10.55;;;4.35;;
24761;SDS011;12865;51.934;10.330;2022-07-29T15:11:52;7.85;;;4.32;;
24761;SDS011;12865;51.934;10.330;2022-07-29T15:14:37;8.13;;;3.88;;
24761;SDS011;12865;51.934;10.330;2022-07-29T15:17:23;9.48;;;3.97;;
24761;SDS011;12865;51.934;10.330;2022-07-29T15:20:09;6.47;;;3.50;;
24761;SDS011;12865;51.934;10.330;2022-07-29T15:22:55;8.35;;;3.70;;
24761;SDS011;12865;51.934;10.330;2022-07-29T15:25:41;9.73;;;3.90;;
24761;SDS011;12865;51.934;10.330;2022-07-29T15:28:27;5.75;;;3.42;;
24761;SDS011;12865;51.934;10.330;2022-07-29T15:31:12;7.95;;;3.22;;
24761;SDS011;12865;51.934;10.330;2022-07-29T15:33:58;7.60;;;3.85;;
24761;SDS011;12865;51.934;10.330;2022-07-29T15:36:44;5.22;;;3.55;;
24761;SDS011;12865;51.934;10.330;2022-07-29T15:39:30;7.53;;;3.72;;
24761;SDS011;12865;51.934;10.330;2022-07-29T15:42:15;8.98;;;3.33;;
24761;SDS011;12865;51.934;10.330;2022-07-29T15:45:01;5.00;;;3.50;;
24761;SDS011;12865;51.934;10.330;2022-07-29T15:47:50;7.18;;;3.80;;
24761;SDS011;12865;51.934;10.330;2022-07-29T15:50:35;11.80;;;3.97;;
24761;SDS011;12865;51.934;10.330;2022-07-29T15:53:21;6.78;;;3.53;;
24761;SDS011;12865;51.934;10.330;2022-07-29T15:56:07;7.13;;;3.45;;
24761;SDS011;12865;51.934;10.330;2022-07-29T15:58:53;5.97;;;3.90;;
24761;SDS011;12865;51.934;10.330;2022-07-29T16:01:38;9.50;;;4.05;;
24761;SDS011;12865;51.934;10.330;2022-07-29T16:04:24;7.20;;;3.55;;
24761;SDS011;12865;51.934;10.330;2022-07-29T16:07:10;7.13;;;4.05;;
24761;SDS011;12865;51.934;10.330;2022-07-29T16:09:56;8.32;;;3.50;;
24761;SDS011;12865;51.934;10.330;2022-07-29T16:12:42;10.65;;;4.07;;
24761;SDS011;12865;51.934;10.330;2022-07-29T16:15:28;7.53;;;3.13;;
24761;SDS011;12865;51.934;10.330;2022-07-29T16:18:13;6.82;;;3.72;;
24761;SDS011;12865;51.934;10.330;2022-07-29T16:20:59;8.48;;;4.03;;
24761;SDS011;12865;51.934;10.330;2022-07-29T16:23:45;9.57;;;3.80;;
24761;SDS011;12865;51.934;10.330;2022-07-29T16:26:31;7.68;;;3.50;;
24761;SDS011;12865;51.934;10.330;2022-07-29T16:29:17;8.45;;;3.75;;
24761;SDS011;12865;51.934;10.330;2022-07-29T16:32:04;3.92;;;3.42;;
24761;SDS011;12865;51.934;10.330;2022-07-29T16:34:50;7.45;;;4.30;;
24761;SDS011;12865;51.934;10.330;2022-07-29T16:37:36;5.57;;;4.05;;
24761;SDS011;12865;51.934;10.330;2022-07-29T16:40:22;6.22;;;4.32;;
24761;SDS011;12865;51.934;10.330;2022-07-29T16:43:08;8.98;;;3.53;;
24761;SDS011;12865;51.934;10.330;2022-07-29T16:45:54;8.63;;;3.92;;
24761;SDS011;12865;51.934;10.330;2022-07-29T16:48:39;9.07;;;4.65;;
24761;SDS011;12865;51.934;10.330;2022-07-29T16:51:25;14.73;;;11.40;;
24761;SDS011;12865;51.934;10.330;2022-07-29T16:54:11;12.90;;;7.05;;
24761;SDS011;12865;51.934;10.330;2022-07-29T16:56:57;8.45;;;4.30;;
24761;SDS011;12865;51.934;10.330;2022-07-29T16:59:44;11.40;;;3.53;;
24761;SDS011;12865;51.934;10.330;2022-07-29T17:02:30;7.82;;;3.80;;
24761;SDS011;12865;51.934;10.330;2022-07-29T17:05:15;15.48;;;3.90;;
24761;SDS011;12865;51.934;10.330;2022-07-29T17:08:01;16.75;;;4.07;;
24761;SDS011;12865;51.934;10.330;2022-07-29T17:10:47;10.00;;;3.63;;
24761;SDS011;12865;51.934;10.330;2022-07-29T17:13:33;13.48;;;4.55;;
24761;SDS011;12865;51.934;10.330;2022-07-29T17:16:18;13.55;;;4.07;;